sensor_id;sensor_type;location;lat;lon;timestamp;P1;durP1;ratioP1;P2;durP2;ratioP2
75246;SDS011;63844;50.042;19.224;2023-04-10T00:00:33;68.70;;;26.70;;
75246;SDS011;63844;50.042;19.224;2023-04-10T00:03:17;66.40;;;26.90;;
75246;SDS011;63844;50.042;19.224;2023-04-10T00:05:44;68.80;;;27.60;;
75246;SDS011;63844;50.042;19.224;2023-04-10T00:08:10;71.40;;;29.90;;
75246;SDS011;63844;50.042;19.224;2023-04-10T00:10:37;69.30;;;29.00;;
75246;SDS011;63844;50.042;19.224;2023-04-10T00:13:03;71.40;;;29.50;;
75246;SDS011;63844;50.042;19.224;2023-04-10T00:15:30;70.70;;;28.10;;
75246;SDS011;63844;50.042;19.224;2023-04-10T00:17:56;66.90;;;27.10;;
75246;SDS011;63844;50.042;19.224;2023-04-10T00:20:22;65.00;;;26.90;;
75246;SDS011;63844;50.042;19.224;2023-04-10T00:22:51;68.60;;;28.60;;
75246;SDS011;63844;50.042;19.224;2023-04-10T00:25:17;63.80;;;25.70;;
75246;SDS011;63844;50.042;19.224;2023-04-10T00:27:44;66.10;;;27.60;;
75246;SDS011;63844;50.042;19.224;2023-04-10T00:30:10;63.20;;;26.10;;
75246;SDS011;63844;50.042;19.224;2023-04-10T00:32:37;62.80;;;25.60;;
75246;SDS011;63844;50.042;19.224;2023-04-10T00:35:03;60.50;;;27.10;;
75246;SDS011;63844;50.042;19.224;2023-04-10T00:39:57;59.40;;;26.60;;
75246;SDS011;63844;50.042;19.224;2023-04-10T00:42:23;57.20;;;24.30;;
75246;SDS011;63844;50.042;19.224;2023-04-10T00:44:49;62.20;;;25.10;;
75246;SDS011;63844;50.042;19.224;2023-04-10T00:47:16;59.60;;;23.70;;
75246;SDS011;63844;50.042;19.224;2023-04-10T00:49:43;59.20;;;23.70;;
75246;SDS011;63844;50.042;19.224;2023-04-10T00:52:10;56.20;;;23.50;;
75246;SDS011;63844;50.042;19.224;2023-04-10T00:54:37;60.40;;;25.30;;
75246;SDS011;63844;50.042;19.224;2023-04-10T00:57:03;60.80;;;25.70;;
75246;SDS011;63844;50.042;19.224;2023-04-10T00:59:30;63.10;;;25.80;;
75246;SDS011;63844;50.042;19.224;2023-04-10T01:01:57;57.60;;;23.90;;
75246;SDS011;63844;50.042;19.224;2023-04-10T01:04:24;60.50;;;24.10;;
75246;SDS011;63844;50.042;19.224;2023-04-10T01:15:21;55.60;;;21.80;;
75246;SDS011;63844;50.042;19.224;2023-04-10T01:20:26;51.40;;;20.80;;
75246;SDS011;63844;50.042;19.224;2023-04-10T01:26:02;56.50;;;24.20;;
75246;SDS011;63844;50.042;19.224;2023-04-10T01:31:20;58.80;;;22.80;;
75246;SDS011;63844;50.042;19.224;2023-04-10T01:33:53;51.00;;;21.20;;
75246;SDS011;63844;50.042;19.224;2023-04-10T01:36:25;58.40;;;23.30;;
75246;SDS011;63844;50.042;19.224;2023-04-10T01:38:56;72.40;;;27.80;;
75246;SDS011;63844;50.042;19.224;2023-04-10T01:41:23;62.10;;;25.00;;
75246;SDS011;63844;50.042;19.224;2023-04-10T01:43:51;63.20;;;25.40;;
75246;SDS011;63844;50.042;19.224;2023-04-10T01:46:19;57.60;;;22.20;;
75246;SDS011;63844;50.042;19.224;2023-04-10T01:48:47;59.90;;;24.20;;
75246;SDS011;63844;50.042;19.224;2023-04-10T01:51:16;59.10;;;23.70;;
75246;SDS011;63844;50.042;19.224;2023-04-10T01:53:43;58.80;;;24.50;;
75246;SDS011;63844;50.042;19.224;2023-04-10T01:56:11;64.20;;;25.90;;
75246;SDS011;63844;50.042;19.224;2023-04-10T01:58:38;71.10;;;27.60;;
75246;SDS011;63844;50.042;19.224;2023-04-10T02:01:06;62.30;;;24.60;;
75246;SDS011;63844;50.042;19.224;2023-04-10T02:03:32;58.30;;;23.30;;
75246;SDS011;63844;50.042;19.224;2023-04-10T02:08:53;60.80;;;22.10;;
75246;SDS011;63844;50.042;19.224;2023-04-10T02:11:40;57.10;;;23.90;;
75246;SDS011;63844;50.042;19.224;2023-04-10T02:14:13;54.40;;;21.90;;
75246;SDS011;63844;50.042;19.224;2023-04-10T02:16:42;58.60;;;23.80;;
75246;SDS011;63844;50.042;19.224;2023-04-10T02:19:09;57.60;;;22.30;;
75246;SDS011;63844;50.042;19.224;2023-04-10T02:21:38;62.20;;;23.70;;
75246;SDS011;63844;50.042;19.224;2023-04-10T02:24:05;61.70;;;23.00;;
75246;SDS011;63844;50.042;19.224;2023-04-10T02:26:45;67.10;;;24.90;;
75246;SDS011;63844;50.042;19.224;2023-04-10T02:29:18;51.70;;;20.00;;
75246;SDS011;63844;50.042;19.224;2023-04-10T02:31:45;63.50;;;22.00;;
75246;SDS011;63844;50.042;19.224;2023-04-10T02:36:38;62.00;;;23.50;;
75246;SDS011;63844;50.042;19.224;2023-04-10T02:39:05;57.70;;;23.80;;
75246;SDS011;63844;50.042;19.224;2023-04-10T02:41:33;65.90;;;23.10;;
75246;SDS011;63844;50.042;19.224;2023-04-10T02:43:59;50.60;;;18.50;;
75246;SDS011;63844;50.042;19.224;2023-04-10T02:46:26;62.80;;;24.30;;
75246;SDS011;63844;50.042;19.224;2023-04-10T02:48:52;64.00;;;22.80;;
75246;SDS011;63844;50.042;19.224;2023-04-10T02:51:20;62.00;;;24.20;;
75246;SDS011;63844;50.042;19.224;2023-04-10T02:53:47;66.10;;;24.40;;
75246;SDS011;63844;50.042;19.224;2023-04-10T02:56:13;62.70;;;23.90;;
75246;SDS011;63844;50.042;19.224;2023-04-10T02:58:40;68.80;;;26.40;;
75246;SDS011;63844;50.042;19.224;2023-04-10T03:01:10;69.00;;;24.90;;
75246;SDS011;63844;50.042;19.224;2023-04-10T03:03:37;58.90;;;23.40;;
75246;SDS011;63844;50.042;19.224;2023-04-10T03:06:04;68.30;;;23.60;;
75246;SDS011;63844;50.042;19.224;2023-04-10T03:08:31;66.50;;;24.50;;
75246;SDS011;63844;50.042;19.224;2023-04-10T03:10:58;56.20;;;21.30;;
75246;SDS011;63844;50.042;19.224;2023-04-10T03:13:24;64.70;;;24.60;;
75246;SDS011;63844;50.042;19.224;2023-04-10T03:15:51;69.50;;;24.60;;
75246;SDS011;63844;50.042;19.224;2023-04-10T03:18:17;75.50;;;26.00;;
75246;SDS011;63844;50.042;19.224;2023-04-10T03:20:44;68.70;;;23.60;;
75246;SDS011;63844;50.042;19.224;2023-04-10T03:23:10;70.40;;;23.70;;
75246;SDS011;63844;50.042;19.224;2023-04-10T03:25:37;79.60;;;25.20;;
75246;SDS011;63844;50.042;19.224;2023-04-10T03:28:03;75.00;;;25.20;;
75246;SDS011;63844;50.042;19.224;2023-04-10T03:32:56;65.30;;;23.50;;
75246;SDS011;63844;50.042;19.224;2023-04-10T03:35:23;61.80;;;21.30;;
75246;SDS011;63844;50.042;19.224;2023-04-10T03:37:49;78.80;;;25.40;;
75246;SDS011;63844;50.042;19.224;2023-04-10T03:40:16;80.40;;;24.90;;
75246;SDS011;63844;50.042;19.224;2023-04-10T03:42:42;74.60;;;24.20;;
75246;SDS011;63844;50.042;19.224;2023-04-10T03:45:09;62.50;;;20.10;;
75246;SDS011;63844;50.042;19.224;2023-04-10T03:47:36;83.60;;;27.20;;
75246;SDS011;63844;50.042;19.224;2023-04-10T03:50:03;73.60;;;23.40;;
75246;SDS011;63844;50.042;19.224;2023-04-10T03:54:56;66.00;;;22.10;;
75246;SDS011;63844;50.042;19.224;2023-04-10T03:57:22;71.20;;;22.30;;
75246;SDS011;63844;50.042;19.224;2023-04-10T03:59:49;78.30;;;24.40;;
75246;SDS011;63844;50.042;19.224;2023-04-10T04:02:16;73.90;;;22.20;;
75246;SDS011;63844;50.042;19.224;2023-04-10T04:04:43;73.20;;;24.10;;
75246;SDS011;63844;50.042;19.224;2023-04-10T04:07:09;82.30;;;25.50;;
75246;SDS011;63844;50.042;19.224;2023-04-10T04:09:37;75.90;;;23.80;;
75246;SDS011;63844;50.042;19.224;2023-04-10T04:14:30;76.20;;;22.90;;
75246;SDS011;63844;50.042;19.224;2023-04-10T04:16:57;77.30;;;24.30;;
75246;SDS011;63844;50.042;19.224;2023-04-10T04:19:23;72.10;;;22.80;;
75246;SDS011;63844;50.042;19.224;2023-04-10T04:21:50;83.40;;;24.90;;
75246;SDS011;63844;50.042;19.224;2023-04-10T04:24:17;63.80;;;18.00;;
75246;SDS011;63844;50.042;19.224;2023-04-10T04:26:43;79.20;;;24.30;;
75246;SDS011;63844;50.042;19.224;2023-04-10T04:29:10;78.50;;;22.90;;
75246;SDS011;63844;50.042;19.224;2023-04-10T04:31:36;84.90;;;24.10;;
75246;SDS011;63844;50.042;19.224;2023-04-10T04:34:02;88.10;;;26.70;;
75246;SDS011;63844;50.042;19.224;2023-04-10T04:36:29;81.00;;;24.50;;
75246;SDS011;63844;50.042;19.224;2023-04-10T04:38:56;82.50;;;24.10;;
75246;SDS011;63844;50.042;19.224;2023-04-10T04:41:22;82.90;;;23.80;;
75246;SDS011;63844;50.042;19.224;2023-04-10T04:43:49;79.90;;;24.30;;
75246;SDS011;63844;50.042;19.224;2023-04-10T04:46:18;90.20;;;25.20;;
75246;SDS011;63844;50.042;19.224;2023-04-10T04:48:44;86.70;;;24.10;;
75246;SDS011;63844;50.042;19.224;2023-04-10T04:51:11;84.50;;;24.10;;
75246;SDS011;63844;50.042;19.224;2023-04-10T04:53:37;78.80;;;24.70;;
75246;SDS011;63844;50.042;19.224;2023-04-10T04:56:04;87.00;;;26.20;;
75246;SDS011;63844;50.042;19.224;2023-04-10T05:00:57;78.80;;;22.10;;
75246;SDS011;63844;50.042;19.224;2023-04-10T05:03:23;80.20;;;21.90;;
75246;SDS011;63844;50.042;19.224;2023-04-10T05:05:50;84.00;;;23.90;;
75246;SDS011;63844;50.042;19.224;2023-04-10T05:08:16;84.40;;;24.60;;
75246;SDS011;63844;50.042;19.224;2023-04-10T05:10:43;89.60;;;25.10;;
75246;SDS011;63844;50.042;19.224;2023-04-10T05:13:09;89.90;;;24.60;;
75246;SDS011;63844;50.042;19.224;2023-04-10T05:15:36;90.10;;;26.20;;
75246;SDS011;63844;50.042;19.224;2023-04-10T05:20:29;97.80;;;27.70;;
75246;SDS011;63844;50.042;19.224;2023-04-10T05:22:56;96.20;;;25.40;;
75246;SDS011;63844;50.042;19.224;2023-04-10T05:25:23;93.20;;;26.60;;
75246;SDS011;63844;50.042;19.224;2023-04-10T05:27:49;90.70;;;23.90;;
75246;SDS011;63844;50.042;19.224;2023-04-10T05:30:16;84.50;;;23.50;;
75246;SDS011;63844;50.042;19.224;2023-04-10T05:32:42;105.80;;;27.00;;
75246;SDS011;63844;50.042;19.224;2023-04-10T05:35:11;99.80;;;27.60;;
75246;SDS011;63844;50.042;19.224;2023-04-10T05:37:37;94.30;;;27.80;;
75246;SDS011;63844;50.042;19.224;2023-04-10T05:40:04;91.40;;;27.70;;
75246;SDS011;63844;50.042;19.224;2023-04-10T05:42:31;96.10;;;27.80;;
75246;SDS011;63844;50.042;19.224;2023-04-10T05:44:57;92.20;;;24.60;;
75246;SDS011;63844;50.042;19.224;2023-04-10T05:47:23;96.10;;;28.40;;
75246;SDS011;63844;50.042;19.224;2023-04-10T05:49:50;104.40;;;29.90;;
75246;SDS011;63844;50.042;19.224;2023-04-10T05:52:16;103.60;;;29.20;;
75246;SDS011;63844;50.042;19.224;2023-04-10T05:54:43;84.10;;;24.80;;
75246;SDS011;63844;50.042;19.224;2023-04-10T05:57:09;101.30;;;28.40;;
75246;SDS011;63844;50.042;19.224;2023-04-10T05:59:36;55.60;;;16.10;;
75246;SDS011;63844;50.042;19.224;2023-04-10T06:02:02;92.30;;;25.90;;
75246;SDS011;63844;50.042;19.224;2023-04-10T06:04:28;54.80;;;15.50;;
75246;SDS011;63844;50.042;19.224;2023-04-10T06:06:55;92.20;;;25.90;;
75246;SDS011;63844;50.042;19.224;2023-04-10T06:09:23;100.20;;;27.80;;
75246;SDS011;63844;50.042;19.224;2023-04-10T06:11:49;101.10;;;28.80;;
75246;SDS011;63844;50.042;19.224;2023-04-10T06:14:16;106.90;;;30.00;;
75246;SDS011;63844;50.042;19.224;2023-04-10T06:16:44;102.10;;;28.30;;
75246;SDS011;63844;50.042;19.224;2023-04-10T06:19:11;88.20;;;23.80;;
75246;SDS011;63844;50.042;19.224;2023-04-10T06:24:04;97.10;;;27.00;;
75246;SDS011;63844;50.042;19.224;2023-04-10T06:26:30;90.10;;;26.50;;
75246;SDS011;63844;50.042;19.224;2023-04-10T06:28:57;94.60;;;23.00;;
75246;SDS011;63844;50.042;19.224;2023-04-10T06:31:23;103.40;;;28.70;;
75246;SDS011;63844;50.042;19.224;2023-04-10T06:33:50;88.80;;;26.70;;
75246;SDS011;63844;50.042;19.224;2023-04-10T06:36:16;103.30;;;27.90;;
75246;SDS011;63844;50.042;19.224;2023-04-10T06:38:43;107.80;;;28.10;;
75246;SDS011;63844;50.042;19.224;2023-04-10T06:41:09;93.50;;;26.70;;
75246;SDS011;63844;50.042;19.224;2023-04-10T06:43:37;89.70;;;26.60;;
75246;SDS011;63844;50.042;19.224;2023-04-10T06:46:04;81.00;;;22.70;;
75246;SDS011;63844;50.042;19.224;2023-04-10T06:48:31;101.30;;;27.40;;
75246;SDS011;63844;50.042;19.224;2023-04-10T06:50:58;87.00;;;25.40;;
75246;SDS011;63844;50.042;19.224;2023-04-10T06:53:28;93.80;;;25.10;;
75246;SDS011;63844;50.042;19.224;2023-04-10T06:55:55;105.90;;;29.20;;
75246;SDS011;63844;50.042;19.224;2023-04-10T06:58:21;98.00;;;27.00;;
75246;SDS011;63844;50.042;19.224;2023-04-10T07:00:49;89.90;;;26.90;;
75246;SDS011;63844;50.042;19.224;2023-04-10T07:03:16;95.50;;;27.40;;
75246;SDS011;63844;50.042;19.224;2023-04-10T07:05:42;98.00;;;28.70;;
75246;SDS011;63844;50.042;19.224;2023-04-10T07:08:08;83.50;;;25.00;;
75246;SDS011;63844;50.042;19.224;2023-04-10T07:10:35;88.90;;;25.80;;
75246;SDS011;63844;50.042;19.224;2023-04-10T07:15:28;81.80;;;22.10;;
75246;SDS011;63844;50.042;19.224;2023-04-10T07:17:55;43.70;;;13.00;;
75246;SDS011;63844;50.042;19.224;2023-04-10T07:20:21;90.50;;;25.50;;
75246;SDS011;63844;50.042;19.224;2023-04-10T07:22:48;68.40;;;21.20;;
75246;SDS011;63844;50.042;19.224;2023-04-10T07:25:14;79.10;;;22.80;;
75246;SDS011;63844;50.042;19.224;2023-04-10T07:27:41;87.40;;;25.30;;
75246;SDS011;63844;50.042;19.224;2023-04-10T07:30:08;80.60;;;23.70;;
75246;SDS011;63844;50.042;19.224;2023-04-10T07:32:35;91.00;;;26.70;;
75246;SDS011;63844;50.042;19.224;2023-04-10T07:35:02;83.30;;;25.10;;
75246;SDS011;63844;50.042;19.224;2023-04-10T07:37:29;90.20;;;26.50;;
75246;SDS011;63844;50.042;19.224;2023-04-10T07:39:55;77.20;;;25.10;;
75246;SDS011;63844;50.042;19.224;2023-04-10T07:42:22;82.50;;;25.60;;
75246;SDS011;63844;50.042;19.224;2023-04-10T07:44:48;81.50;;;24.00;;
75246;SDS011;63844;50.042;19.224;2023-04-10T07:47:15;79.40;;;21.90;;
75246;SDS011;63844;50.042;19.224;2023-04-10T07:49:41;76.70;;;23.90;;
75246;SDS011;63844;50.042;19.224;2023-04-10T07:52:08;90.70;;;26.30;;
75246;SDS011;63844;50.042;19.224;2023-04-10T07:54:34;80.80;;;23.80;;
75246;SDS011;63844;50.042;19.224;2023-04-10T07:59:27;80.40;;;26.70;;
75246;SDS011;63844;50.042;19.224;2023-04-10T08:01:54;88.30;;;26.40;;
75246;SDS011;63844;50.042;19.224;2023-04-10T08:04:20;88.70;;;27.30;;
75246;SDS011;63844;50.042;19.224;2023-04-10T08:06:47;94.20;;;28.50;;
75246;SDS011;63844;50.042;19.224;2023-04-10T08:09:15;81.50;;;25.70;;
75246;SDS011;63844;50.042;19.224;2023-04-10T08:11:41;93.00;;;26.90;;
75246;SDS011;63844;50.042;19.224;2023-04-10T08:14:07;94.90;;;30.30;;
75246;SDS011;63844;50.042;19.224;2023-04-10T08:16:34;89.70;;;25.40;;
75246;SDS011;63844;50.042;19.224;2023-04-10T08:19:01;95.70;;;34.70;;
75246;SDS011;63844;50.042;19.224;2023-04-10T08:21:29;77.00;;;25.20;;
75246;SDS011;63844;50.042;19.224;2023-04-10T08:23:57;96.30;;;29.90;;
75246;SDS011;63844;50.042;19.224;2023-04-10T08:26:26;89.50;;;26.00;;
75246;SDS011;63844;50.042;19.224;2023-04-10T08:28:57;78.80;;;25.00;;
75246;SDS011;63844;50.042;19.224;2023-04-10T08:31:25;79.40;;;25.80;;
75246;SDS011;63844;50.042;19.224;2023-04-10T08:33:53;73.10;;;22.50;;
75246;SDS011;63844;50.042;19.224;2023-04-10T08:36:20;78.30;;;25.70;;
75246;SDS011;63844;50.042;19.224;2023-04-10T08:38:46;78.30;;;27.20;;
75246;SDS011;63844;50.042;19.224;2023-04-10T08:41:14;69.40;;;21.10;;
75246;SDS011;63844;50.042;19.224;2023-04-10T08:43:42;73.70;;;24.80;;
75246;SDS011;63844;50.042;19.224;2023-04-10T08:46:11;70.80;;;24.90;;
75246;SDS011;63844;50.042;19.224;2023-04-10T08:48:38;64.80;;;22.60;;
75246;SDS011;63844;50.042;19.224;2023-04-10T08:51:16;73.50;;;25.20;;
75246;SDS011;63844;50.042;19.224;2023-04-10T08:53:45;52.90;;;18.70;;
75246;SDS011;63844;50.042;19.224;2023-04-10T08:56:15;62.40;;;22.70;;
75246;SDS011;63844;50.042;19.224;2023-04-10T08:58:43;71.80;;;23.00;;
75246;SDS011;63844;50.042;19.224;2023-04-10T09:01:10;66.10;;;22.40;;
75246;SDS011;63844;50.042;19.224;2023-04-10T09:06:04;64.80;;;22.00;;
75246;SDS011;63844;50.042;19.224;2023-04-10T09:08:31;76.60;;;24.80;;
75246;SDS011;63844;50.042;19.224;2023-04-10T09:10:58;68.60;;;23.00;;
75246;SDS011;63844;50.042;19.224;2023-04-10T09:13:38;58.80;;;21.70;;
75246;SDS011;63844;50.042;19.224;2023-04-10T09:16:09;54.50;;;19.40;;
75246;SDS011;63844;50.042;19.224;2023-04-10T09:18:39;63.40;;;21.40;;
75246;SDS011;63844;50.042;19.224;2023-04-10T09:21:06;61.80;;;19.50;;
75246;SDS011;63844;50.042;19.224;2023-04-10T09:23:33;60.70;;;20.10;;
75246;SDS011;63844;50.042;19.224;2023-04-10T09:25:59;57.60;;;21.20;;
75246;SDS011;63844;50.042;19.224;2023-04-10T09:28:26;61.20;;;21.00;;
75246;SDS011;63844;50.042;19.224;2023-04-10T09:30:52;62.80;;;21.60;;
75246;SDS011;63844;50.042;19.224;2023-04-10T09:33:25;57.20;;;19.30;;
75246;SDS011;63844;50.042;19.224;2023-04-10T09:35:53;65.10;;;22.70;;
75246;SDS011;63844;50.042;19.224;2023-04-10T09:38:22;56.10;;;18.50;;
75246;SDS011;63844;50.042;19.224;2023-04-10T09:40:49;64.10;;;23.40;;
75246;SDS011;63844;50.042;19.224;2023-04-10T09:43:16;57.80;;;20.70;;
75246;SDS011;63844;50.042;19.224;2023-04-10T09:45:50;62.50;;;22.80;;
75246;SDS011;63844;50.042;19.224;2023-04-10T09:48:18;59.10;;;21.00;;
75246;SDS011;63844;50.042;19.224;2023-04-10T09:50:44;60.30;;;22.50;;
75246;SDS011;63844;50.042;19.224;2023-04-10T09:53:13;40.20;;;14.40;;
75246;SDS011;63844;50.042;19.224;2023-04-10T09:55:40;57.20;;;18.20;;
75246;SDS011;63844;50.042;19.224;2023-04-10T09:58:08;52.60;;;18.60;;
75246;SDS011;63844;50.042;19.224;2023-04-10T10:00:38;52.90;;;19.90;;
75246;SDS011;63844;50.042;19.224;2023-04-10T10:03:06;58.30;;;21.70;;
75246;SDS011;63844;50.042;19.224;2023-04-10T10:05:36;59.70;;;20.80;;
75246;SDS011;63844;50.042;19.224;2023-04-10T10:08:04;50.90;;;18.90;;
75246;SDS011;63844;50.042;19.224;2023-04-10T10:10:32;52.90;;;20.10;;
75246;SDS011;63844;50.042;19.224;2023-04-10T10:12:59;50.30;;;19.80;;
75246;SDS011;63844;50.042;19.224;2023-04-10T10:15:34;55.10;;;20.40;;
75246;SDS011;63844;50.042;19.224;2023-04-10T10:18:10;52.20;;;20.50;;
75246;SDS011;63844;50.042;19.224;2023-04-10T10:20:42;56.10;;;21.30;;
75246;SDS011;63844;50.042;19.224;2023-04-10T10:23:10;52.60;;;20.10;;
75246;SDS011;63844;50.042;19.224;2023-04-10T10:25:36;54.10;;;21.10;;
75246;SDS011;63844;50.042;19.224;2023-04-10T10:28:04;50.60;;;19.50;;
75246;SDS011;63844;50.042;19.224;2023-04-10T10:30:33;53.60;;;20.30;;
75246;SDS011;63844;50.042;19.224;2023-04-10T10:33:02;54.50;;;20.60;;
75246;SDS011;63844;50.042;19.224;2023-04-10T10:35:33;53.60;;;21.20;;
75246;SDS011;63844;50.042;19.224;2023-04-10T10:38:01;51.60;;;21.20;;
75246;SDS011;63844;50.042;19.224;2023-04-10T10:40:32;52.20;;;20.30;;
75246;SDS011;63844;50.042;19.224;2023-04-10T10:43:12;54.40;;;21.40;;
75246;SDS011;63844;50.042;19.224;2023-04-10T10:45:47;54.50;;;22.80;;
75246;SDS011;63844;50.042;19.224;2023-04-10T10:48:19;47.60;;;19.50;;
75246;SDS011;63844;50.042;19.224;2023-04-10T10:53:31;56.90;;;21.70;;
75246;SDS011;63844;50.042;19.224;2023-04-10T10:58:54;52.00;;;21.50;;
75246;SDS011;63844;50.042;19.224;2023-04-10T11:01:22;51.50;;;19.40;;
75246;SDS011;63844;50.042;19.224;2023-04-10T11:03:49;53.90;;;24.10;;
75246;SDS011;63844;50.042;19.224;2023-04-10T11:06:46;48.40;;;20.30;;
75246;SDS011;63844;50.042;19.224;2023-04-10T11:09:42;37.40;;;15.80;;
75246;SDS011;63844;50.042;19.224;2023-04-10T11:12:18;54.90;;;22.10;;
75246;SDS011;63844;50.042;19.224;2023-04-10T11:14:58;63.20;;;23.40;;
75246;SDS011;63844;50.042;19.224;2023-04-10T11:17:46;66.10;;;24.60;;
75246;SDS011;63844;50.042;19.224;2023-04-10T11:20:14;70.90;;;26.90;;
75246;SDS011;63844;50.042;19.224;2023-04-10T11:25:45;57.50;;;19.40;;
75246;SDS011;63844;50.042;19.224;2023-04-10T11:31:16;60.50;;;23.10;;
75246;SDS011;63844;50.042;19.224;2023-04-10T11:33:48;68.80;;;26.10;;
75246;SDS011;63844;50.042;19.224;2023-04-10T11:36:22;57.30;;;19.10;;
75246;SDS011;63844;50.042;19.224;2023-04-10T11:38:55;64.10;;;23.30;;
75246;SDS011;63844;50.042;19.224;2023-04-10T11:41:27;38.80;;;14.80;;
75246;SDS011;63844;50.042;19.224;2023-04-10T11:43:54;62.60;;;23.60;;
75246;SDS011;63844;50.042;19.224;2023-04-10T11:46:20;66.30;;;23.90;;
75246;SDS011;63844;50.042;19.224;2023-04-10T11:51:17;71.40;;;26.60;;
75246;SDS011;63844;50.042;19.224;2023-04-10T11:53:43;73.80;;;26.20;;
75246;SDS011;63844;50.042;19.224;2023-04-10T11:58:43;76.10;;;26.00;;
75246;SDS011;63844;50.042;19.224;2023-04-10T12:01:10;74.90;;;26.90;;
75246;SDS011;63844;50.042;19.224;2023-04-10T12:03:40;69.80;;;25.00;;
75246;SDS011;63844;50.042;19.224;2023-04-10T12:06:11;48.00;;;17.60;;
75246;SDS011;63844;50.042;19.224;2023-04-10T12:08:39;54.60;;;19.80;;
75246;SDS011;63844;50.042;19.224;2023-04-10T12:11:08;70.50;;;26.30;;
75246;SDS011;63844;50.042;19.224;2023-04-10T12:13:35;69.40;;;26.60;;
75246;SDS011;63844;50.042;19.224;2023-04-10T12:16:03;62.60;;;23.50;;
75246;SDS011;63844;50.042;19.224;2023-04-10T12:18:32;63.40;;;23.00;;
75246;SDS011;63844;50.042;19.224;2023-04-10T12:20:59;64.40;;;27.30;;
75246;SDS011;63844;50.042;19.224;2023-04-10T12:23:26;51.20;;;20.10;;
75246;SDS011;63844;50.042;19.224;2023-04-10T12:28:34;64.80;;;26.40;;
75246;SDS011;63844;50.042;19.224;2023-04-10T12:31:02;62.80;;;26.00;;
75246;SDS011;63844;50.042;19.224;2023-04-10T12:33:29;69.20;;;25.60;;
75246;SDS011;63844;50.042;19.224;2023-04-10T12:35:55;62.20;;;26.00;;
75246;SDS011;63844;50.042;19.224;2023-04-10T12:41:08;67.50;;;26.40;;
75246;SDS011;63844;50.042;19.224;2023-04-10T12:43:39;72.30;;;27.90;;
75246;SDS011;63844;50.042;19.224;2023-04-10T12:46:08;60.30;;;20.80;;
75246;SDS011;63844;50.042;19.224;2023-04-10T12:48:35;73.00;;;26.00;;
75246;SDS011;63844;50.042;19.224;2023-04-10T12:51:02;73.60;;;27.70;;
75246;SDS011;63844;50.042;19.224;2023-04-10T12:53:29;64.80;;;26.40;;
75246;SDS011;63844;50.042;19.224;2023-04-10T12:55:57;76.20;;;28.80;;
75246;SDS011;63844;50.042;19.224;2023-04-10T12:58:24;85.10;;;28.80;;
75246;SDS011;63844;50.042;19.224;2023-04-10T13:00:54;81.20;;;28.30;;
75246;SDS011;63844;50.042;19.224;2023-04-10T13:03:24;75.00;;;27.30;;
75246;SDS011;63844;50.042;19.224;2023-04-10T13:05:50;54.10;;;23.00;;
75246;SDS011;63844;50.042;19.224;2023-04-10T13:08:18;67.50;;;26.40;;
75246;SDS011;63844;50.042;19.224;2023-04-10T13:10:46;65.90;;;26.10;;
75246;SDS011;63844;50.042;19.224;2023-04-10T13:15:39;74.30;;;28.90;;
75246;SDS011;63844;50.042;19.224;2023-04-10T13:18:06;72.10;;;26.90;;
75246;SDS011;63844;50.042;19.224;2023-04-10T13:20:33;69.40;;;25.20;;
75246;SDS011;63844;50.042;19.224;2023-04-10T13:23:01;71.00;;;26.20;;
75246;SDS011;63844;50.042;19.224;2023-04-10T13:25:32;56.40;;;20.70;;
75246;SDS011;63844;50.042;19.224;2023-04-10T13:27:59;48.60;;;19.80;;
75246;SDS011;63844;50.042;19.224;2023-04-10T13:30:27;81.30;;;29.50;;
75246;SDS011;63844;50.042;19.224;2023-04-10T13:32:53;72.50;;;27.50;;
75246;SDS011;63844;50.042;19.224;2023-04-10T13:35:20;64.00;;;25.80;;
75246;SDS011;63844;50.042;19.224;2023-04-10T13:37:47;73.40;;;28.00;;
75246;SDS011;63844;50.042;19.224;2023-04-10T13:40:18;72.30;;;28.50;;
75246;SDS011;63844;50.042;19.224;2023-04-10T13:42:46;62.90;;;25.40;;
75246;SDS011;63844;50.042;19.224;2023-04-10T13:45:13;63.20;;;25.90;;
75246;SDS011;63844;50.042;19.224;2023-04-10T13:47:40;73.40;;;29.80;;
75246;SDS011;63844;50.042;19.224;2023-04-10T13:50:07;72.60;;;26.70;;
75246;SDS011;63844;50.042;19.224;2023-04-10T13:52:34;64.20;;;26.30;;
75246;SDS011;63844;50.042;19.224;2023-04-10T13:57:27;65.70;;;24.90;;
75246;SDS011;63844;50.042;19.224;2023-04-10T14:02:20;63.20;;;24.70;;
75246;SDS011;63844;50.042;19.224;2023-04-10T14:07:13;63.80;;;25.30;;
75246;SDS011;63844;50.042;19.224;2023-04-10T14:09:39;60.80;;;24.30;;
75246;SDS011;63844;50.042;19.224;2023-04-10T14:14:32;57.10;;;22.70;;
75246;SDS011;63844;50.042;19.224;2023-04-10T14:16:59;54.30;;;23.80;;
75246;SDS011;63844;50.042;19.224;2023-04-10T14:21:51;62.20;;;26.00;;
75246;SDS011;63844;50.042;19.224;2023-04-10T14:26:44;58.70;;;24.50;;
75246;SDS011;63844;50.042;19.224;2023-04-10T14:31:37;58.50;;;23.80;;
75246;SDS011;63844;50.042;19.224;2023-04-10T14:36:30;58.90;;;26.10;;
75246;SDS011;63844;50.042;19.224;2023-04-10T14:38:57;45.20;;;19.40;;
75246;SDS011;63844;50.042;19.224;2023-04-10T14:43:50;52.40;;;23.60;;
75246;SDS011;63844;50.042;19.224;2023-04-10T14:48:43;50.20;;;21.10;;
75246;SDS011;63844;50.042;19.224;2023-04-10T14:51:09;56.70;;;24.60;;
75246;SDS011;63844;50.042;19.224;2023-04-10T14:53:38;50.60;;;22.90;;
75246;SDS011;63844;50.042;19.224;2023-04-10T14:56:08;38.70;;;18.10;;
75246;SDS011;63844;50.042;19.224;2023-04-10T14:58:36;47.70;;;21.70;;
75246;SDS011;63844;50.042;19.224;2023-04-10T15:03:33;37.60;;;17.10;;
75246;SDS011;63844;50.042;19.224;2023-04-10T15:08:26;53.90;;;22.50;;
75246;SDS011;63844;50.042;19.224;2023-04-10T15:13:19;45.90;;;21.70;;
75246;SDS011;63844;50.042;19.224;2023-04-10T15:15:46;46.10;;;23.10;;
75246;SDS011;63844;50.042;19.224;2023-04-10T15:18:15;54.00;;;25.60;;
75246;SDS011;63844;50.042;19.224;2023-04-10T15:23:08;48.60;;;22.40;;
75246;SDS011;63844;50.042;19.224;2023-04-10T15:25:36;52.00;;;25.70;;
75246;SDS011;63844;50.042;19.224;2023-04-10T15:28:03;50.70;;;24.00;;
75246;SDS011;63844;50.042;19.224;2023-04-10T15:30:29;45.30;;;22.70;;
75246;SDS011;63844;50.042;19.224;2023-04-10T15:32:56;49.50;;;25.00;;
75246;SDS011;63844;50.042;19.224;2023-04-10T15:37:51;50.10;;;22.50;;
75246;SDS011;63844;50.042;19.224;2023-04-10T15:42:44;44.80;;;19.80;;
75246;SDS011;63844;50.042;19.224;2023-04-10T15:45:10;31.30;;;14.20;;
75246;SDS011;63844;50.042;19.224;2023-04-10T15:47:37;42.90;;;19.80;;
75246;SDS011;63844;50.042;19.224;2023-04-10T15:50:03;38.60;;;19.10;;
75246;SDS011;63844;50.042;19.224;2023-04-10T15:52:30;42.40;;;20.70;;
75246;SDS011;63844;50.042;19.224;2023-04-10T15:54:58;45.10;;;21.10;;
75246;SDS011;63844;50.042;19.224;2023-04-10T15:57:25;36.90;;;18.20;;
75246;SDS011;63844;50.042;19.224;2023-04-10T16:02:23;42.90;;;22.50;;
75246;SDS011;63844;50.042;19.224;2023-04-10T16:04:49;43.40;;;21.30;;